createdAt,value
2019-02-02T00:01:22.565Z,39.30
2019-02-02T00:04:02.421Z,39.47
2019-02-02T00:06:31.734Z,44.27
2019-02-02T00:09:04.027Z,41.93
2019-02-02T00:11:32.554Z,43.87
2019-02-02T00:14:10.827Z,42.63
2019-02-02T00:16:42.630Z,42.90
2019-02-02T00:19:15.397Z,41.90
2019-02-02T00:22:01.725Z,38.90
2019-02-02T00:27:40.793Z,36.63
2019-02-02T00:30:06.704Z,36.07
2019-02-02T00:32:35.231Z,37.37
2019-02-02T00:35:16.583Z,36.00
2019-02-02T00:41:03.605Z,37.07
2019-02-02T00:43:38.273Z,38.90
2019-02-02T00:46:19.329Z,37.27
2019-02-02T00:48:56.327Z,43.37
2019-02-02T00:51:38.832Z,41.57
2019-02-02T00:54:11.156Z,40.97
2019-02-02T00:56:42.593Z,39.47
2019-02-02T00:59:15.840Z,39.63
2019-02-02T01:01:47.725Z,35.63
2019-02-02T01:04:18.406Z,31.37
2019-02-02T01:07:14.779Z,28.33
2019-02-02T01:09:50.660Z,28.37
2019-02-02T01:12:20.579Z,27.57
2019-02-02T01:17:37.830Z,29.73
2019-02-02T01:20:06.799Z,27.20
2019-02-02T01:22:35.316Z,28.90
2019-02-02T01:28:07.209Z,22.63
2019-02-02T01:30:41.735Z,18.13
2019-02-02T01:39:20.056Z,14.37
2019-02-02T01:41:50.148Z,13.47
2019-02-02T01:47:09.068Z,14.20
2019-02-02T01:49:38.398Z,14.73
2019-02-02T01:52:06.927Z,15.50
2019-02-02T01:57:51.977Z,20.60
2019-02-02T02:00:33.895Z,20.77
2019-02-02T02:03:13.959Z,18.50
2019-02-02T02:08:30.532Z,16.50
2019-02-02T02:11:46.697Z,17.77
2019-02-02T02:13:50.369Z,17.23
2019-02-02T02:16:34.044Z,17.53
2019-02-02T02:25:32.606Z,17.53
2019-02-02T02:30:38.918Z,15.97
2019-02-02T02:33:07.340Z,17.10
2019-02-02T02:35:36.690Z,15.93
2019-02-02T02:38:05.324Z,16.77
2019-02-02T02:43:43.343Z,17.57
2019-02-02T02:46:15.359Z,15.03
2019-02-02T02:49:30.395Z,15.43
2019-02-02T02:54:47.850Z,14.47
2019-02-02T02:57:39.907Z,13.30
2019-02-02T03:00:51.738Z,13.50
2019-02-02T03:03:26.599Z,12.53
2019-02-02T03:06:23.905Z,13.43
2019-02-02T03:08:59.290Z,13.93
2019-02-02T03:11:29.824Z,13.23
2019-02-02T03:14:13.563Z,13.93
2019-02-02T03:19:49.727Z,14.43
2019-02-02T03:22:19.045Z,16.40
2019-02-02T03:24:48.358Z,15.77
2019-02-02T03:27:23.495Z,16.00
2019-02-02T03:29:52.020Z,15.20
2019-02-02T03:32:21.438Z,16.63
2019-02-02T03:34:50.746Z,16.33
2019-02-02T03:37:20.067Z,16.00
2019-02-02T03:39:55.283Z,15.70
2019-02-02T03:42:44.267Z,17.47
2019-02-02T03:48:35.875Z,17.70
2019-02-02T03:51:05.833Z,20.23
2019-02-02T03:53:35.429Z,16.37
2019-02-02T03:58:47.013Z,12.83
2019-02-02T04:01:32.743Z,11.43
2019-02-02T04:04:21.266Z,11.20
2019-02-02T04:06:59.844Z,10.43
2019-02-02T04:09:28.369Z,10.40
2019-02-02T04:12:00.205Z,11.43
2019-02-02T04:14:31.274Z,11.33
2019-02-02T04:17:06.474Z,12.77
2019-02-02T04:19:57.208Z,15.90
2019-02-02T04:25:37.323Z,18.50
2019-02-02T04:31:10.697Z,14.90
2019-02-02T04:33:42.101Z,15.63
2019-02-02T04:36:13.966Z,14.70
2019-02-02T04:41:47.208Z,13.13
2019-02-02T04:44:23.075Z,15.67
2019-02-02T04:47:06.745Z,15.50
2019-02-02T04:50:06.810Z,17.30
2019-02-02T04:52:43.735Z,17.93
2019-02-02T05:01:01.278Z,18.40
2019-02-02T05:03:50.904Z,18.53
2019-02-02T05:06:22.377Z,19.60
2019-02-02T05:08:53.983Z,20.67
2019-02-02T05:11:24.457Z,20.13
2019-02-02T05:13:55.767Z,22.07
2019-02-02T05:19:29.704Z,29.40
2019-02-02T05:22:10.492Z,29.13
2019-02-02T05:24:52.919Z,26.63
2019-02-02T05:27:29.436Z,25.90
2019-02-02T05:30:09.735Z,26.80
2019-02-02T05:35:21.241Z,26.83
2019-02-02T05:37:55.028Z,27.33
2019-02-02T05:40:24.345Z,26.87
2019-02-02T05:42:54.880Z,27.73
2019-02-02T05:48:37.352Z,28.13
2019-02-02T05:51:15.891Z,26.93
2019-02-02T05:53:47.758Z,26.97
2019-02-02T05:56:20.390Z,25.43
2019-02-02T05:58:51.212Z,25.17
2019-02-02T06:04:22.748Z,28.57
2019-02-02T06:07:05.540Z,31.37
2019-02-02T06:12:21.187Z,30.87
2019-02-02T06:14:50.512Z,29.93
2019-02-02T06:17:32.056Z,31.43
2019-02-02T06:23:16.225Z,29.83
2019-02-02T06:28:47.208Z,33.37
2019-02-02T06:33:59.486Z,27.57
2019-02-02T06:36:49.955Z,31.47
2019-02-02T06:39:33.819Z,37.57
2019-02-02T06:42:16.398Z,34.87
2019-02-02T06:44:54.123Z,32.37
2019-02-02T06:47:37.571Z,29.30
2019-02-02T06:50:18.435Z,32.53
2019-02-02T06:52:50.742Z,37.60
2019-02-02T06:55:21.231Z,62.40
2019-02-02T06:58:11.264Z,65.27
2019-02-02T07:00:57.916Z,76.70
2019-02-02T07:03:41.139Z,79.17
2019-02-02T07:06:15.659Z,79.73
2019-02-02T07:11:51.725Z,65.47
2019-02-02T07:14:34.141Z,70.90
2019-02-02T07:17:28.828Z,76.33
2019-02-02T07:19:57.859Z,72.17
2019-02-02T07:22:40.754Z,75.70
2019-02-02T07:25:18.115Z,73.40
2019-02-02T07:28:04.077Z,70.00
2019-02-02T07:30:42.656Z,78.43
2019-02-02T07:33:11.190Z,78.07
2019-02-02T07:35:40.535Z,69.40
2019-02-02T07:38:09.063Z,65.00
2019-02-02T07:40:37.586Z,65.23
2019-02-02T07:43:09.094Z,66.30
2019-02-02T07:45:52.410Z,69.37
2019-02-02T07:48:39.605Z,67.63
2019-02-02T07:54:21.543Z,60.13
2019-02-02T07:59:39.952Z,57.87
2019-02-02T08:05:15.635Z,62.40
2019-02-02T08:07:46.959Z,62.03
2019-02-02T08:10:27.762Z,50.30
2019-02-02T08:13:10.346Z,39.93
2019-02-02T08:16:00.266Z,33.13
2019-02-02T08:18:48.352Z,23.77
2019-02-02T08:24:22.156Z,15.50
2019-02-02T08:27:14.779Z,16.00
2019-02-02T08:29:47.925Z,15.10
2019-02-02T08:32:34.728Z,16.20
2019-02-02T08:35:15.239Z,15.77
2019-02-02T08:38:05.590Z,16.60
2019-02-02T08:40:34.996Z,14.93
2019-02-02T08:46:04.866Z,16.90
2019-02-02T08:51:23.283Z,18.50
2019-02-02T08:54:07.668Z,20.10
2019-02-02T08:57:01.210Z,19.27
2019-02-02T08:59:59.915Z,16.60
2019-02-02T09:02:49.888Z,17.67
2019-02-02T09:08:26.659Z,16.70
2019-02-02T09:10:56.289Z,18.37
2019-02-02T09:13:40.539Z,18.23
2019-02-02T09:16:35.233Z,19.30
2019-02-02T09:19:04.565Z,18.50
2019-02-02T09:21:53.623Z,18.77
2019-02-02T09:24:27.853Z,19.30
2019-02-02T09:27:02.870Z,17.67
2019-02-02T09:30:35.635Z,18.53
2019-02-02T09:32:38.053Z,17.30
2019-02-02T09:35:07.389Z,17.43
2019-02-02T09:37:43.500Z,18.23
2019-02-02T09:43:18.092Z,17.30
2019-02-02T09:49:11.769Z,16.93
2019-02-02T09:52:13.539Z,17.73
2019-02-02T09:54:49.808Z,18.20
2019-02-02T10:00:34.704Z,18.27
2019-02-02T10:06:05.429Z,17.73
2019-02-02T10:08:37.055Z,17.17
2019-02-02T10:11:16.435Z,17.10
2019-02-02T10:13:42.468Z,16.97
2019-02-02T10:16:14.643Z,17.57
2019-02-02T10:18:43.992Z,19.17
2019-02-02T10:21:13.332Z,18.10
2019-02-02T10:23:42.656Z,16.87
2019-02-02T10:26:29.171Z,17.27
2019-02-02T10:29:18.238Z,18.17
2019-02-02T10:31:46.761Z,16.50
2019-02-02T10:35:02.956Z,18.33
2019-02-02T10:37:17.185Z,17.33
2019-02-02T10:39:54.625Z,15.70
2019-02-02T10:42:26.671Z,16.93
2019-02-02T10:44:57.709Z,16.87
2019-02-02T10:47:26.247Z,14.47
2019-02-02T10:50:08.718Z,14.30
2019-02-02T10:52:44.243Z,14.67
2019-02-02T10:57:55.791Z,17.20
2019-02-02T11:00:27.386Z,17.53
2019-02-02T11:03:00.670Z,16.83
2019-02-02T11:05:36.050Z,20.03
2019-02-02T11:11:00.866Z,27.23
2019-02-02T11:13:52.928Z,30.83
2019-02-02T11:16:24.303Z,31.63
2019-02-02T11:18:55.845Z,32.33
2019-02-02T11:21:23.987Z,30.77
2019-02-02T11:23:55.635Z,30.27
2019-02-02T11:26:24.136Z,32.03
2019-02-02T11:29:04.512Z,25.83
2019-02-02T11:31:46.882Z,29.37
2019-02-02T11:34:15.464Z,32.60
2019-02-02T11:39:48.709Z,22.30
2019-02-02T11:42:21.604Z,23.33
2019-02-02T11:44:53.427Z,21.53
2019-02-02T11:47:21.892Z,18.50
2019-02-02T11:52:55.890Z,18.70
2019-02-02T11:58:28.220Z,19.40
2019-02-02T12:00:57.910Z,20.03
2019-02-02T12:06:28.335Z,22.17
2019-02-02T12:17:33.238Z,24.17
2019-02-02T12:23:25.079Z,28.47
2019-02-02T12:25:54.499Z,23.63
2019-02-02T12:29:01.721Z,19.73
2019-02-02T12:31:31.159Z,23.13
2019-02-02T12:40:13.175Z,19.07
2019-02-02T12:48:32.233Z,16.10
2019-02-02T12:51:32.842Z,16.30
2019-02-02T12:54:02.971Z,14.13
2019-02-02T12:56:52.717Z,12.70
2019-02-02T13:02:13.790Z,11.10
2019-02-02T13:07:56.929Z,12.10
2019-02-02T13:13:48.877Z,15.83
2019-02-02T13:16:17.405Z,16.43
2019-02-02T13:19:08.009Z,18.10
2019-02-02T13:21:56.693Z,16.20
2019-02-02T13:24:28.294Z,14.83
2019-02-02T13:36:10.803Z,10.43
2019-02-02T13:38:52.153Z,10.63
2019-02-02T13:41:23.133Z,11.10
2019-02-02T13:46:56.379Z,10.00
2019-02-02T13:49:26.645Z,9.03
2019-02-02T13:52:16.429Z,9.00
2019-02-02T13:57:52.277Z,7.97
2019-02-02T14:06:31.225Z,7.90
2019-02-02T14:15:01.571Z,8.73
2019-02-02T14:17:44.565Z,6.67
2019-02-02T14:26:07.177Z,6.57
2019-02-02T14:28:35.615Z,6.10
2019-02-02T14:43:05.246Z,13.13
2019-02-02T14:48:44.400Z,17.67
2019-02-02T14:51:13.840Z,16.07
2019-02-02T14:57:01.169Z,15.87
2019-02-02T14:59:32.662Z,18.60
2019-02-02T15:02:03.563Z,21.63
2019-02-02T15:07:54.319Z,26.63
2019-02-02T15:10:24.425Z,24.67
2019-02-02T15:13:14.177Z,23.17
2019-02-02T15:15:43.500Z,25.13
2019-02-02T15:18:13.833Z,25.73
2019-02-02T15:23:47.109Z,22.97
2019-02-02T15:26:19.144Z,25.80
2019-02-02T15:29:02.621Z,29.20
2019-02-02T15:31:54.737Z,29.27
2019-02-02T15:37:20.437Z,23.93
2019-02-02T15:39:50.396Z,24.50
2019-02-02T15:42:19.726Z,27.70
2019-02-02T15:44:49.060Z,30.20
2019-02-02T15:47:34.349Z,31.23
2019-02-02T15:50:12.354Z,32.70
2019-02-02T15:55:23.688Z,25.93
2019-02-02T15:58:06.583Z,22.80
2019-02-02T16:00:57.861Z,29.30
2019-02-02T16:03:26.404Z,29.63
2019-02-02T16:06:11.341Z,29.03
2019-02-02T16:08:44.217Z,26.13
2019-02-02T16:14:15.628Z,19.17
2019-02-02T16:16:58.462Z,18.97
2019-02-02T16:19:38.589Z,16.60
2019-02-02T16:25:29.258Z,11.27
2019-02-02T16:27:58.808Z,9.23
2019-02-02T16:30:28.423Z,8.70
2019-02-02T16:32:57.890Z,7.90
2019-02-02T16:35:27.288Z,8.30
2019-02-02T16:37:55.872Z,8.70
2019-02-02T16:43:20.672Z,9.40
2019-02-02T16:45:49.222Z,11.87
2019-02-02T16:48:18.554Z,11.63
2019-02-02T16:50:47.894Z,10.90
2019-02-02T16:53:16.447Z,12.47
2019-02-02T16:58:47.583Z,9.00
2019-02-02T17:01:16.148Z,9.57
2019-02-02T17:03:44.688Z,9.67
2019-02-02T17:06:14.017Z,10.50
2019-02-02T17:08:43.361Z,8.43
2019-02-02T17:11:12.688Z,9.70
2019-02-02T17:13:42.023Z,7.07
2019-02-02T17:16:11.347Z,9.30
2019-02-02T17:18:40.671Z,8.67
2019-02-02T17:21:10.003Z,8.07
2019-02-02T17:23:50.859Z,8.83
2019-02-02T17:26:19.401Z,7.73
2019-02-02T17:28:48.740Z,7.80
2019-02-02T17:31:18.214Z,8.57
2019-02-02T17:33:47.547Z,7.93
2019-02-02T17:36:16.874Z,8.53
2019-02-02T17:38:46.209Z,8.63
2019-02-02T17:41:15.541Z,8.57
2019-02-02T17:43:44.970Z,8.73
2019-02-02T17:46:14.296Z,7.20
2019-02-02T17:48:43.639Z,7.13
2019-02-02T17:51:12.971Z,6.30
2019-02-02T17:53:42.294Z,7.90
2019-02-02T17:56:10.825Z,7.43
2019-02-02T18:01:42.073Z,6.90
2019-02-02T18:04:39.273Z,6.47
2019-02-02T18:07:21.040Z,7.00
2019-02-02T18:12:51.957Z,6.77
2019-02-02T18:18:23.111Z,7.90
2019-02-02T18:20:51.715Z,8.33
2019-02-02T18:23:20.173Z,8.27
2019-02-02T18:28:53.846Z,6.00
2019-02-02T18:31:40.397Z,6.27
2019-02-02T18:34:09.762Z,5.47
2019-02-02T18:36:39.071Z,6.13
2019-02-02T18:39:08.674Z,5.43
2019-02-02T18:41:38.022Z,5.27
2019-02-02T18:44:07.363Z,6.00
2019-02-02T18:46:36.867Z,6.47
2019-02-02T18:49:06.308Z,5.87
2019-02-02T18:51:34.739Z,5.43
2019-02-02T18:57:05.653Z,6.13
2019-02-02T18:59:55.446Z,5.60
2019-02-02T19:02:24.784Z,5.97
2019-02-02T19:07:55.964Z,5.30
2019-02-02T19:10:27.269Z,6.03
2019-02-02T19:18:41.435Z,5.17
2019-02-02T19:21:10.777Z,5.90
2019-02-02T19:23:40.133Z,6.07
2019-02-02T19:26:09.627Z,6.10
2019-02-02T19:28:40.228Z,6.03
2019-02-02T19:34:11.484Z,5.97
2019-02-02T19:36:40.837Z,6.00
2019-02-02T19:39:10.172Z,6.37
2019-02-02T19:41:39.507Z,6.57
2019-02-02T19:44:08.356Z,6.43
2019-02-02T19:49:39.362Z,6.20
2019-02-02T19:52:07.900Z,6.33
2019-02-02T19:57:39.295Z,5.03
2019-02-02T20:02:54.584Z,5.40
2019-02-02T20:05:28.524Z,5.87
2019-02-02T20:08:13.371Z,7.00
2019-02-02T20:10:42.757Z,8.67
2019-02-02T20:13:12.100Z,8.53
2019-02-02T20:15:40.842Z,8.23
2019-02-02T20:21:11.891Z,9.00
2019-02-02T20:23:40.455Z,8.50
2019-02-02T20:29:11.441Z,7.00
2019-02-02T20:31:40.060Z,6.40
2019-02-02T20:34:09.399Z,7.73
2019-02-02T20:36:38.838Z,7.43
2019-02-02T20:39:08.499Z,9.13
2019-02-02T20:41:37.831Z,9.00
2019-02-02T20:44:07.160Z,7.60
2019-02-02T20:46:36.486Z,8.20
2019-02-02T20:52:06.945Z,7.20
2019-02-02T20:54:36.271Z,6.40
2019-02-02T20:57:18.673Z,6.27
2019-02-02T20:59:47.111Z,6.70
2019-02-02T21:02:16.452Z,5.67
2019-02-02T21:04:45.792Z,5.57
2019-02-02T21:07:15.120Z,5.67
2019-02-02T21:09:44.452Z,6.03
2019-02-02T21:12:13.786Z,5.63
2019-02-02T21:14:43.116Z,5.40
2019-02-02T21:17:11.846Z,6.40
2019-02-02T21:19:41.183Z,5.80
2019-02-02T21:22:10.522Z,5.73
2019-02-02T21:24:39.850Z,6.23
2019-02-02T21:27:09.207Z,5.40
2019-02-02T21:29:58.443Z,4.60
2019-02-02T21:32:27.779Z,5.27
2019-02-02T21:34:57.112Z,5.87
2019-02-02T21:37:25.529Z,5.03
2019-02-02T21:42:57.104Z,5.63
2019-02-02T21:48:28.245Z,7.27
2019-02-02T21:50:56.774Z,6.73
2019-02-02T21:56:27.532Z,7.00
2019-02-02T21:58:56.369Z,7.10
2019-02-02T22:04:29.819Z,6.10
2019-02-02T22:06:59.162Z,6.07
2019-02-02T22:09:27.682Z,5.93
2019-02-02T22:14:59.050Z,6.90
2019-02-02T22:17:27.882Z,8.27
2019-02-02T22:20:08.355Z,7.47
2019-02-02T22:22:36.889Z,7.03
2019-02-02T22:25:27.033Z,7.10
2019-02-02T22:27:56.483Z,8.63
2019-02-02T22:30:27.758Z,8.07
2019-02-02T22:32:56.486Z,8.00
2019-02-02T22:35:25.810Z,7.07
2019-02-02T22:38:15.054Z,6.00
2019-02-02T22:40:44.379Z,7.10
2019-02-02T22:43:13.840Z,6.33
2019-02-02T22:45:43.155Z,6.10
2019-02-02T22:48:32.402Z,6.57
2019-02-02T22:51:00.920Z,5.93
2019-02-02T22:56:31.936Z,6.23
2019-02-02T22:59:00.478Z,6.60
2019-02-02T23:05:11.812Z,6.77
2019-02-02T23:08:19.071Z,6.30
2019-02-02T23:11:26.332Z,6.30
2019-02-02T23:14:33.485Z,7.77
2019-02-02T23:17:02.015Z,7.33
2019-02-02T23:19:30.541Z,7.80
2019-02-02T23:22:12.211Z,7.97
2019-02-02T23:24:40.642Z,8.97
2019-02-02T23:27:09.976Z,10.47
2019-02-02T23:29:39.320Z,8.57
2019-02-02T23:32:08.764Z,9.53
2019-02-02T23:34:38.100Z,8.90
2019-02-02T23:37:06.835Z,7.60
2019-02-02T23:39:36.173Z,7.17
2019-02-02T23:42:05.505Z,7.20
2019-02-02T23:44:34.140Z,7.90
2019-02-02T23:47:03.575Z,7.50
2019-02-02T23:49:32.210Z,8.03
2019-02-02T23:52:01.543Z,7.83
2019-02-02T23:54:30.872Z,7.53
2019-02-02T23:57:00.201Z,8.40
2019-02-02T23:59:29.535Z,7.70
